createdAt,value
2022-10-18T00:06:51.498Z,42.05
2022-10-18T00:14:27.398Z,42.19
2022-10-18T00:22:07.245Z,42.28
2022-10-18T00:29:51.365Z,42.28
2022-10-18T00:37:34.544Z,42.3
2022-10-18T00:45:24.407Z,42.28
2022-10-18T00:53:21.861Z,42.37
2022-10-18T01:01:02.900Z,42.34
2022-10-18T01:08:54.605Z,42.32
2022-10-18T01:17:04.530Z,42.37
2022-10-18T01:25:16.215Z,42.36
2022-10-18T01:33:36.919Z,42.33
2022-10-18T01:41:39.344Z,42.38
2022-10-18T01:49:28.363Z,42.34
2022-10-18T01:57:23.514Z,42.31
2022-10-18T02:05:20.376Z,42.39
2022-10-18T02:13:31.835Z,42.24
2022-10-18T02:21:40.611Z,42.3
2022-10-18T02:29:23.561Z,42.27
2022-10-18T02:37:42.163Z,42.18
2022-10-18T02:45:39.289Z,42.12
2022-10-18T02:53:09.908Z,41.78
2022-10-18T03:00:42.416Z,41.89
2022-10-18T03:08:14.312Z,42.08
2022-10-18T03:15:59.020Z,42.34
2022-10-18T03:23:31.946Z,42.29
2022-10-18T03:31:04.990Z,42.34
2022-10-18T03:38:37.557Z,42.36
2022-10-18T03:46:15.234Z,42.42
2022-10-18T03:54:02.033Z,42.44
2022-10-18T04:01:30.012Z,42.44
2022-10-18T04:09:06.490Z,42.5
2022-10-18T04:17:03.643Z,42.57
2022-10-18T04:24:33.965Z,42.55
2022-10-18T04:32:04.627Z,42.39
2022-10-18T04:39:43.610Z,42.41
2022-10-18T04:47:16.962Z,42.43
2022-10-18T04:54:55.368Z,42.48
2022-10-18T05:02:35.096Z,42.45
2022-10-18T05:10:14.031Z,42.3
2022-10-18T05:17:53.246Z,42.34
2022-10-18T05:25:31.917Z,42.37
2022-10-18T05:33:10.171Z,42.31
2022-10-18T05:40:36.273Z,42.23
2022-10-18T05:48:16.983Z,42.26
2022-10-18T05:55:51.458Z,42.18
2022-10-18T06:03:39.542Z,42.02
2022-10-18T06:11:24.767Z,41.95
2022-10-18T06:18:59.623Z,41.83
2022-10-18T06:26:42.101Z,41.96
2022-10-18T06:34:04.570Z,41.72
2022-10-18T06:41:19.664Z,41.59
2022-10-18T06:48:47.870Z,41.78
2022-10-18T06:56:18.124Z,41.68
2022-10-18T07:03:49.323Z,41.77
2022-10-18T07:11:28.087Z,41.72
2022-10-18T07:18:43.126Z,41.58
2022-10-18T07:26:04.528Z,41.53
2022-10-18T07:33:07.810Z,41.44
2022-10-18T07:39:44.310Z,41.23
2022-10-18T07:46:27.505Z,41.02
2022-10-18T07:53:03.329Z,41
2022-10-18T07:59:47.038Z,40.81
2022-10-18T08:06:38.590Z,40.72
2022-10-18T08:13:23.583Z,40.74
2022-10-18T08:20:29.714Z,40.73
2022-10-18T08:27:07.137Z,40.75
2022-10-18T08:33:43.837Z,40.89
2022-10-18T08:40:36.961Z,40.86
2022-10-18T08:47:39.302Z,40.84
2022-10-18T08:54:42.284Z,40.84
2022-10-18T09:01:55.581Z,40.71
2022-10-18T09:08:54.347Z,40.86
2022-10-18T09:16:10.849Z,40.84
2022-10-18T09:23:32.802Z,40.79
2022-10-18T09:30:32.981Z,40.83
2022-10-18T09:37:31.814Z,40.84
2022-10-18T09:44:24.609Z,40.78
2022-10-18T09:51:27.497Z,40.62
2022-10-18T09:58:36.538Z,40.67
2022-10-18T10:05:28.464Z,40.59
2022-10-18T10:12:21.456Z,40.58
2022-10-18T10:19:29.911Z,40.6
2022-10-18T10:26:49.423Z,40.51
2022-10-18T10:33:40.464Z,40.59
2022-10-18T10:40:39.392Z,40.61
2022-10-18T10:47:36.515Z,40.53
2022-10-18T10:54:21.565Z,40.63
2022-10-18T11:01:07.805Z,40.61
2022-10-18T11:08:14.443Z,40.72
2022-10-18T11:15:14.540Z,40.66
2022-10-18T11:22:11.004Z,40.71
2022-10-18T11:29:21.361Z,40.76
2022-10-18T11:36:17.538Z,40.73
2022-10-18T11:43:50.461Z,40.7
2022-10-18T11:50:51.465Z,40.65
2022-10-18T11:58:11.957Z,40.71
2022-10-18T12:05:25.302Z,40.75
2022-10-18T12:12:23.703Z,40.68
2022-10-18T12:19:31.642Z,40.59
2022-10-18T12:26:20.692Z,40.75
2022-10-18T12:33:28.510Z,40.74
2022-10-18T12:40:36.754Z,40.71
2022-10-18T12:47:33.709Z,40.74
2022-10-18T12:54:29.640Z,40.69
2022-10-18T13:01:32.068Z,40.64
2022-10-18T13:08:19.585Z,40.73
2022-10-18T13:15:36.682Z,40.78
2022-10-18T13:22:44.667Z,40.75
2022-10-18T13:30:01.606Z,40.65
2022-10-18T13:37:04.688Z,40.75
2022-10-18T13:44:10.561Z,40.71
2022-10-18T13:51:26.657Z,40.68
2022-10-18T13:58:49.081Z,40.57
2022-10-18T14:06:26.008Z,40.48
2022-10-18T14:13:49.112Z,40.54
2022-10-18T14:21:14.148Z,40.49
2022-10-18T14:28:59.779Z,40.46
2022-10-18T14:35:56.697Z,40.45
2022-10-18T14:43:12.120Z,40.61
2022-10-18T14:50:20.093Z,40.66
2022-10-18T14:57:29.928Z,40.83
2022-10-18T15:04:29.075Z,40.64
2022-10-18T15:11:34.601Z,40.94
2022-10-18T15:19:00.675Z,41.21
2022-10-18T15:26:33.566Z,41.27
2022-10-18T15:33:48.291Z,41.09
2022-10-18T15:41:24.984Z,41.51
2022-10-18T15:48:27.693Z,41.29
2022-10-18T15:55:39.123Z,41.11
2022-10-18T16:02:51.089Z,41
2022-10-18T16:10:04.701Z,41.28
2022-10-18T16:17:19.565Z,41.57
2022-10-18T16:24:50.950Z,41.64
2022-10-18T16:32:24.467Z,41.65
2022-10-18T16:39:54.059Z,41.79
2022-10-18T16:46:56.893Z,41.65
2022-10-18T16:54:07.944Z,41.71
2022-10-18T17:01:21.720Z,41.82
2022-10-18T17:08:22.098Z,41.66
2022-10-18T17:15:19.157Z,41.46
2022-10-18T17:22:26.795Z,41.53
2022-10-18T17:29:42.098Z,41.48
2022-10-18T17:36:43.553Z,41.44
2022-10-18T17:44:13.469Z,41.87
2022-10-18T17:51:20.547Z,41.61
2022-10-18T17:57:59.136Z,41.48
2022-10-18T18:05:37.083Z,41.6
2022-10-18T18:12:38.756Z,41.68
2022-10-18T18:19:40.405Z,41.59
2022-10-18T18:26:43.079Z,41.62
2022-10-18T18:33:54.608Z,41.73
2022-10-18T18:41:00.623Z,41.69
2022-10-18T18:48:00.652Z,41.45
2022-10-18T18:54:50.127Z,41.33
2022-10-18T19:02:10.715Z,41.7
2022-10-18T19:09:32.115Z,41.68
2022-10-18T19:16:15.705Z,41.43
2022-10-18T19:22:52.102Z,41.25
2022-10-18T19:29:38.141Z,41.3
2022-10-18T19:36:15.235Z,41.16
2022-10-18T19:42:54.858Z,41.21
2022-10-18T19:49:32.483Z,41.24
2022-10-18T19:56:10.720Z,41.13
2022-10-18T20:03:08.030Z,41.16
2022-10-18T20:09:54.767Z,41.1
2022-10-18T20:16:29.211Z,41.02
2022-10-18T20:23:13.388Z,41.1
2022-10-18T20:29:43.700Z,41.11
2022-10-18T20:36:12.623Z,41.07
2022-10-18T20:42:47.932Z,41.06
2022-10-18T20:49:20.621Z,41.05
2022-10-18T20:55:48.176Z,41.07
2022-10-18T21:02:17.747Z,41.04
2022-10-18T21:08:51.808Z,40.99
2022-10-18T21:15:20.153Z,41.01
2022-10-18T21:22:02.157Z,40.96
2022-10-18T21:28:29.121Z,40.96
2022-10-18T21:34:58.882Z,41.03
2022-10-18T21:41:30.224Z,40.96
2022-10-18T21:47:54.690Z,40.97
2022-10-18T21:54:33.782Z,40.96
2022-10-18T22:01:03.439Z,41.02
2022-10-18T22:07:49.645Z,41
2022-10-18T22:14:13.788Z,41.02
2022-10-18T22:20:53.840Z,41.03
2022-10-18T22:27:25.834Z,41.01
2022-10-18T22:34:03.886Z,40.97
2022-10-18T22:40:42.643Z,41.16
2022-10-18T22:47:14.229Z,41.16
2022-10-18T22:53:38.726Z,41.22
2022-10-18T23:00:14.816Z,41.28
2022-10-18T23:06:46.796Z,41.33
2022-10-18T23:13:22.259Z,41.45
2022-10-18T23:19:54.277Z,41.46
2022-10-18T23:26:24.207Z,41.46
2022-10-18T23:33:03.853Z,41.5
2022-10-18T23:39:28.079Z,41.52
2022-10-18T23:45:55.154Z,41.53
2022-10-18T23:52:20.326Z,41.5
2022-10-18T23:58:52.230Z,41.47
